createdAt,value
2018-10-09T00:00:52.156Z,20.60
2018-10-09T00:03:20.569Z,20.67
2018-10-09T00:05:49.059Z,21.97
2018-10-09T00:08:17.461Z,20.60
2018-10-09T00:10:45.890Z,21.13
2018-10-09T00:13:14.475Z,20.90
2018-10-09T00:15:43.015Z,20.63
2018-10-09T00:18:11.390Z,19.17
2018-10-09T00:20:39.910Z,20.63
2018-10-09T00:23:08.322Z,20.07
2018-10-09T00:25:37.043Z,21.33
2018-10-09T00:28:05.790Z,20.53
2018-10-09T00:30:34.298Z,18.80
2018-10-09T00:33:02.722Z,19.73
2018-10-09T00:35:31.332Z,20.83
2018-10-09T00:37:59.715Z,20.00
2018-10-09T00:40:28.070Z,18.83
2018-10-09T00:42:56.451Z,23.93
2018-10-09T00:45:24.855Z,22.53
2018-10-09T00:47:53.206Z,21.60
2018-10-09T00:50:21.666Z,19.17
2018-10-09T00:52:50.029Z,27.37
2018-10-09T00:55:18.407Z,24.97
2018-10-09T00:57:46.895Z,21.83
2018-10-09T01:00:15.252Z,25.43
2018-10-09T01:02:43.774Z,40.60
2018-10-09T01:05:12.245Z,32.70
2018-10-09T01:07:40.803Z,22.83
2018-10-09T01:10:09.174Z,31.43
2018-10-09T01:12:37.911Z,45.97
2018-10-09T01:15:06.331Z,37.60
2018-10-09T01:17:34.971Z,34.93
2018-10-09T01:20:03.410Z,39.17
2018-10-09T01:22:31.794Z,26.50
2018-10-09T01:25:00.187Z,30.73
2018-10-09T01:27:28.607Z,29.53
2018-10-09T01:29:57.060Z,37.63
2018-10-09T01:32:25.428Z,38.77
2018-10-09T01:34:54.150Z,32.87
2018-10-09T01:37:22.510Z,60.93
2018-10-09T01:39:50.920Z,44.67
2018-10-09T01:42:19.547Z,34.57
2018-10-09T01:44:47.904Z,25.87
2018-10-09T01:47:16.320Z,43.97
2018-10-09T01:49:45.402Z,39.17
2018-10-09T01:52:13.777Z,35.30
2018-10-09T01:54:42.586Z,26.73
2018-10-09T01:57:10.952Z,98.03
2018-10-09T01:59:39.655Z,44.00
2018-10-09T02:02:07.977Z,33.40
2018-10-09T02:04:36.620Z,47.77
2018-10-09T02:07:04.992Z,25.90
2018-10-09T02:09:33.316Z,28.33
2018-10-09T02:12:01.839Z,26.77
2018-10-09T02:14:30.168Z,29.30
2018-10-09T02:16:58.477Z,28.87
2018-10-09T02:19:26.814Z,61.53
2018-10-09T02:21:55.137Z,25.93
2018-10-09T02:24:23.481Z,33.17
2018-10-09T02:26:51.908Z,35.67
2018-10-09T02:29:20.225Z,38.90
2018-10-09T02:31:49.543Z,21.70
2018-10-09T02:34:17.929Z,57.10
2018-10-09T02:36:46.543Z,51.27
2018-10-09T02:39:14.851Z,36.27
2018-10-09T02:41:43.284Z,43.90
2018-10-09T02:44:11.670Z,23.67
2018-10-09T02:46:40.252Z,20.77
2018-10-09T02:49:08.591Z,21.37
2018-10-09T02:51:36.992Z,22.23
2018-10-09T02:54:05.360Z,21.40
2018-10-09T02:56:33.757Z,38.73
2018-10-09T02:59:02.078Z,31.80
2018-10-09T03:01:30.426Z,36.77
2018-10-09T03:03:59.120Z,22.33
2018-10-09T03:06:27.464Z,19.93
2018-10-09T03:08:55.825Z,20.90
2018-10-09T03:11:24.232Z,21.17
2018-10-09T03:13:52.574Z,20.47
2018-10-09T03:16:20.892Z,19.67
2018-10-09T03:18:49.495Z,20.30
2018-10-09T03:21:17.964Z,21.60
2018-10-09T03:23:46.540Z,20.20
2018-10-09T03:26:14.926Z,21.00
2018-10-09T03:28:43.499Z,21.73
2018-10-09T03:31:11.872Z,21.47
2018-10-09T03:33:40.612Z,21.57
2018-10-09T03:36:08.913Z,20.73
2018-10-09T03:38:37.318Z,33.10
2018-10-09T03:41:06.052Z,32.20
2018-10-09T03:43:34.420Z,20.40
2018-10-09T03:46:02.950Z,21.83
2018-10-09T03:48:31.285Z,33.47
2018-10-09T03:50:59.724Z,22.80
2018-10-09T03:53:28.096Z,26.23
2018-10-09T03:55:56.440Z,23.30
2018-10-09T03:58:24.807Z,73.90
2018-10-09T04:00:53.220Z,33.17
2018-10-09T04:03:21.584Z,31.40
2018-10-09T04:05:50.043Z,81.30
2018-10-09T04:08:18.394Z,59.07
2018-10-09T04:10:47.029Z,63.77
2018-10-09T04:13:15.373Z,81.63
2018-10-09T04:15:43.898Z,29.67
2018-10-09T04:18:12.282Z,39.80
2018-10-09T04:20:41.174Z,44.53
2018-10-09T04:23:09.583Z,107.57
2018-10-09T04:25:38.129Z,90.10
2018-10-09T04:28:06.547Z,39.67
2018-10-09T04:30:35.001Z,75.53
2018-10-09T04:33:03.393Z,96.67
2018-10-09T04:35:31.772Z,89.47
2018-10-09T04:38:00.295Z,62.90
2018-10-09T04:40:28.763Z,58.57
2018-10-09T04:42:57.156Z,51.87
2018-10-09T04:45:28.331Z,77.30
2018-10-09T04:47:57.891Z,111.03
2018-10-09T04:50:26.266Z,42.13
2018-10-09T04:52:54.597Z,49.57
2018-10-09T04:55:23.083Z,106.43
2018-10-09T04:57:51.592Z,48.60
2018-10-09T05:00:20.029Z,57.90
2018-10-09T05:02:48.659Z,83.97
2018-10-09T05:05:17.098Z,61.13
2018-10-09T05:07:45.536Z,48.73
2018-10-09T05:10:14.026Z,74.27
2018-10-09T05:12:42.628Z,63.57
2018-10-09T05:15:10.992Z,55.80
2018-10-09T05:17:39.470Z,48.00
2018-10-09T05:20:09.178Z,60.73
2018-10-09T05:22:37.589Z,57.03
2018-10-09T05:25:06.099Z,71.47
2018-10-09T05:27:34.495Z,204.30
2018-10-09T05:30:03.006Z,87.03
2018-10-09T05:32:31.655Z,66.13
2018-10-09T05:35:00.101Z,63.50
2018-10-09T05:37:28.496Z,152.40
2018-10-09T05:39:56.838Z,86.37
2018-10-09T05:42:25.188Z,49.30
2018-10-09T05:44:53.717Z,41.17
2018-10-09T05:47:22.808Z,28.97
2018-10-09T05:49:51.262Z,26.57
2018-10-09T05:52:19.715Z,44.30
2018-10-09T05:54:48.301Z,40.73
2018-10-09T05:57:16.859Z,110.33
2018-10-09T05:59:45.755Z,36.17
2018-10-09T06:02:14.258Z,21.97
2018-10-09T06:04:43.115Z,20.93
2018-10-09T06:07:11.720Z,22.43
2018-10-09T06:09:40.265Z,32.23
2018-10-09T06:12:08.743Z,69.97
2018-10-09T06:14:37.443Z,51.77
2018-10-09T06:17:05.865Z,21.13
2018-10-09T06:19:34.372Z,30.43
2018-10-09T06:22:02.774Z,40.53
2018-10-09T06:24:31.271Z,61.97
2018-10-09T06:26:59.716Z,29.83
2018-10-09T06:29:28.124Z,44.73
2018-10-09T06:31:56.556Z,18.37
2018-10-09T06:34:24.964Z,28.80
2018-10-09T06:36:53.407Z,17.90
2018-10-09T06:39:21.807Z,18.33
2018-10-09T06:41:50.300Z,33.97
2018-10-09T06:44:18.683Z,47.00
2018-10-09T06:46:48.329Z,47.47
2018-10-09T06:49:16.788Z,22.97
2018-10-09T06:51:47.569Z,50.40
2018-10-09T06:54:16.287Z,38.63
2018-10-09T06:56:44.701Z,59.07
2018-10-09T06:59:13.110Z,30.63
2018-10-09T07:01:41.489Z,18.33
2018-10-09T07:04:09.840Z,25.27
2018-10-09T07:06:38.233Z,34.40
2018-10-09T07:09:08.674Z,32.50
2018-10-09T07:11:37.082Z,42.97
2018-10-09T07:14:05.494Z,35.43
2018-10-09T07:16:33.959Z,67.87
2018-10-09T07:19:02.292Z,18.40
2018-10-09T07:21:45.265Z,18.27
2018-10-09T07:24:13.704Z,34.33
2018-10-09T07:26:42.112Z,20.20
2018-10-09T07:29:13.892Z,18.47
2018-10-09T07:31:42.320Z,17.87
2018-10-09T07:34:10.949Z,19.70
2018-10-09T07:36:39.381Z,16.63
2018-10-09T07:39:09.945Z,17.23
2018-10-09T07:41:38.376Z,16.63
2018-10-09T07:44:06.920Z,17.20
2018-10-09T07:46:35.220Z,17.87
2018-10-09T07:49:03.670Z,18.93
2018-10-09T07:51:32.025Z,19.43
2018-10-09T07:54:14.892Z,20.97
2018-10-09T07:56:43.196Z,21.60
2018-10-09T07:59:11.553Z,23.60
2018-10-09T08:01:40.308Z,21.73
2018-10-09T08:04:08.649Z,21.83
2018-10-09T08:06:36.989Z,20.00
2018-10-09T08:09:08.441Z,21.50
2018-10-09T08:11:36.749Z,22.80
2018-10-09T08:14:05.074Z,22.57
2018-10-09T08:16:33.411Z,23.33
2018-10-09T08:19:01.822Z,23.60
2018-10-09T08:21:30.162Z,24.23
2018-10-09T08:23:58.521Z,25.97
2018-10-09T08:26:26.892Z,22.90
2018-10-09T08:28:55.242Z,22.93
2018-10-09T08:31:23.629Z,25.60
2018-10-09T08:33:52.145Z,28.20
2018-10-09T08:36:20.471Z,24.20
2018-10-09T08:38:48.885Z,24.90
2018-10-09T08:41:17.319Z,25.10
2018-10-09T08:43:45.565Z,26.43
2018-10-09T08:46:13.968Z,26.50
2018-10-09T08:48:42.711Z,25.60
2018-10-09T08:51:11.070Z,27.23
2018-10-09T08:53:40.001Z,26.37
2018-10-09T08:56:08.320Z,28.37
2018-10-09T08:58:36.707Z,26.43
2018-10-09T09:01:05.676Z,27.23
2018-10-09T09:03:34.015Z,27.27
2018-10-09T09:06:02.298Z,26.57
2018-10-09T09:08:30.636Z,26.90
2018-10-09T09:10:59.095Z,29.67
2018-10-09T09:13:27.446Z,28.60
2018-10-09T09:15:55.825Z,27.90
2018-10-09T09:18:24.114Z,27.30
2018-10-09T09:20:52.457Z,28.73
2018-10-09T09:23:20.757Z,26.70
2018-10-09T09:25:49.397Z,26.67
2018-10-09T09:28:17.720Z,25.80
2018-10-09T09:30:46.070Z,25.70
2018-10-09T09:33:14.479Z,24.23
2018-10-09T09:35:42.745Z,25.57
2018-10-09T09:38:11.105Z,40.43
2018-10-09T09:40:39.688Z,22.63
2018-10-09T09:43:07.995Z,22.53
2018-10-09T09:45:36.341Z,24.23
2018-10-09T09:48:04.633Z,22.67
2018-10-09T09:50:32.933Z,21.63
2018-10-09T09:53:01.337Z,22.57
2018-10-09T09:55:29.677Z,21.40
2018-10-09T09:57:58.067Z,24.87
2018-10-09T10:00:31.740Z,27.43
2018-10-09T10:03:00.045Z,22.30
2018-10-09T10:05:28.339Z,18.53
2018-10-09T10:07:56.700Z,14.77
2018-10-09T10:10:25.005Z,17.47
2018-10-09T10:12:53.317Z,15.70
2018-10-09T10:15:21.661Z,14.80
2018-10-09T10:17:50.038Z,16.77
2018-10-09T10:20:18.377Z,15.27
2018-10-09T10:22:46.730Z,15.97
2018-10-09T10:25:15.042Z,16.93
2018-10-09T10:27:43.362Z,17.10
2018-10-09T10:30:11.721Z,14.80
2018-10-09T10:32:40.022Z,15.53
2018-10-09T10:35:08.429Z,14.53
2018-10-09T10:37:36.829Z,16.67
2018-10-09T10:40:05.677Z,16.23
2018-10-09T10:42:33.968Z,17.10
2018-10-09T10:45:02.339Z,16.37
2018-10-09T10:47:30.626Z,17.93
2018-10-09T10:49:58.932Z,17.00
2018-10-09T10:52:27.318Z,17.80
2018-10-09T10:54:55.742Z,17.97
2018-10-09T10:57:24.040Z,17.17
2018-10-09T10:59:52.416Z,17.30
2018-10-09T11:02:20.757Z,18.40
2018-10-09T11:04:49.066Z,17.27
2018-10-09T11:07:17.413Z,15.27
2018-10-09T11:09:45.712Z,17.23
2018-10-09T11:12:14.028Z,16.80
2018-10-09T11:14:42.485Z,17.00
2018-10-09T11:17:10.748Z,16.90
2018-10-09T11:19:39.405Z,17.07
2018-10-09T11:22:07.814Z,16.97
2018-10-09T11:24:36.270Z,13.90
2018-10-09T11:27:04.588Z,12.00
2018-10-09T11:29:32.932Z,13.47
2018-10-09T11:32:01.268Z,12.77
2018-10-09T11:34:29.586Z,13.20
2018-10-09T11:36:57.939Z,11.73
2018-10-09T11:39:26.284Z,11.57
2018-10-09T11:41:54.763Z,12.90
2018-10-09T11:44:23.114Z,12.90
2018-10-09T11:46:51.429Z,12.23
2018-10-09T11:49:19.753Z,11.50
2018-10-09T11:51:48.362Z,11.93
2018-10-09T11:54:16.814Z,12.97
2018-10-09T11:56:45.132Z,13.60
2018-10-09T11:59:13.560Z,14.23
2018-10-09T12:01:41.857Z,12.37
2018-10-09T12:04:10.282Z,12.87
2018-10-09T12:06:38.617Z,14.10
2018-10-09T12:09:09.625Z,12.20
2018-10-09T12:11:38.115Z,12.87
2018-10-09T12:14:06.520Z,29.57
2018-10-09T12:16:34.825Z,12.93
2018-10-09T12:19:03.129Z,13.17
2018-10-09T12:21:31.592Z,12.07
2018-10-09T12:24:00.010Z,12.43
2018-10-09T12:26:28.312Z,12.70
2018-10-09T12:28:56.670Z,12.70
2018-10-09T12:31:24.973Z,11.50
2018-10-09T12:33:53.313Z,11.30
2018-10-09T12:36:21.649Z,10.47
2018-10-09T12:38:49.948Z,9.60
2018-10-09T12:41:18.245Z,10.20
2018-10-09T12:43:46.571Z,10.50
2018-10-09T12:46:14.865Z,9.50
2018-10-09T12:48:43.173Z,8.63
2018-10-09T12:51:11.536Z,9.90
2018-10-09T12:53:39.957Z,10.13
2018-10-09T12:56:08.281Z,9.43
2018-10-09T12:58:36.690Z,11.27
2018-10-09T13:01:04.957Z,9.77
2018-10-09T13:03:33.250Z,10.33
2018-10-09T13:06:01.615Z,10.83
2018-10-09T13:08:29.917Z,10.80
2018-10-09T13:10:58.241Z,11.10
2018-10-09T13:13:26.583Z,9.17
2018-10-09T13:15:54.910Z,8.70
2018-10-09T13:18:23.420Z,9.30
2018-10-09T13:20:51.851Z,8.50
2018-10-09T13:23:20.086Z,8.87
2018-10-09T13:25:48.402Z,8.13
2018-10-09T13:28:16.733Z,8.60
2018-10-09T13:30:45.069Z,7.77
2018-10-09T13:33:13.359Z,7.77
2018-10-09T13:35:41.809Z,8.43
2018-10-09T13:38:10.141Z,8.77
2018-10-09T13:40:38.416Z,8.67
2018-10-09T13:43:07.444Z,8.70
2018-10-09T13:45:35.742Z,9.10
2018-10-09T13:48:04.065Z,9.27
2018-10-09T13:50:32.728Z,12.17
2018-10-09T13:53:01.024Z,10.27
2018-10-09T13:55:29.352Z,9.27
2018-10-09T13:57:57.676Z,9.87
2018-10-09T14:00:26.052Z,15.10
2018-10-09T14:02:54.605Z,8.63
2018-10-09T14:05:22.892Z,8.40
2018-10-09T14:07:51.196Z,7.23
2018-10-09T14:10:19.946Z,8.30
2018-10-09T14:12:48.267Z,7.27
2018-10-09T14:15:16.579Z,7.93
2018-10-09T14:17:44.861Z,6.77
2018-10-09T14:20:13.201Z,15.77
2018-10-09T14:22:41.562Z,6.93
2018-10-09T14:25:09.824Z,7.73
2018-10-09T14:27:38.229Z,6.67
2018-10-09T14:30:06.652Z,9.47
2018-10-09T14:32:34.948Z,6.90
2018-10-09T14:35:03.354Z,7.20
2018-10-09T14:37:31.624Z,7.37
2018-10-09T14:39:59.940Z,6.83
2018-10-09T14:42:28.276Z,6.73
2018-10-09T14:44:56.591Z,7.90
2018-10-09T14:47:25.176Z,7.07
2018-10-09T14:49:53.740Z,7.40
2018-10-09T14:52:22.037Z,8.53
2018-10-09T14:54:50.372Z,8.30
2018-10-09T14:57:18.776Z,8.17
2018-10-09T14:59:47.026Z,9.10
2018-10-09T15:02:15.328Z,19.07
2018-10-09T15:04:43.663Z,11.60
2018-10-09T15:07:11.949Z,13.07
2018-10-09T15:09:40.292Z,11.53
2018-10-09T15:12:08.581Z,9.57
2018-10-09T15:14:36.917Z,7.50
2018-10-09T15:17:05.252Z,7.17
2018-10-09T15:19:33.565Z,9.80
2018-10-09T15:22:01.858Z,8.00
2018-10-09T15:24:30.137Z,15.93
2018-10-09T15:26:58.518Z,79.80
2018-10-09T15:29:26.828Z,12.70
2018-10-09T15:31:55.123Z,20.30
2018-10-09T15:34:23.432Z,8.47
2018-10-09T15:36:51.721Z,9.77
2018-10-09T15:39:20.009Z,13.77
2018-10-09T15:41:48.342Z,17.53
2018-10-09T15:44:16.663Z,10.40
2018-10-09T15:46:44.956Z,10.77
2018-10-09T15:49:13.288Z,9.27
2018-10-09T15:51:41.572Z,12.83
2018-10-09T15:54:09.883Z,10.27
2018-10-09T15:56:38.286Z,13.63
2018-10-09T15:59:06.596Z,9.37
2018-10-09T16:01:34.889Z,12.43
2018-10-09T16:04:03.296Z,14.57
2018-10-09T16:06:31.556Z,22.00
2018-10-09T16:08:59.992Z,30.87
2018-10-09T16:11:28.782Z,133.83
2018-10-09T16:13:57.078Z,27.17
2018-10-09T16:16:25.369Z,17.30
2018-10-09T16:18:53.688Z,17.87
2018-10-09T16:21:22.001Z,11.63
2018-10-09T16:23:50.293Z,11.10
2018-10-09T16:26:18.616Z,10.40
2018-10-09T16:28:46.953Z,12.90
2018-10-09T16:31:15.247Z,12.07
2018-10-09T16:33:43.585Z,11.70
2018-10-09T16:36:11.877Z,15.83
2018-10-09T16:38:40.173Z,12.07
2018-10-09T16:41:08.977Z,13.07
2018-10-09T16:43:37.324Z,15.40
2018-10-09T16:46:06.028Z,13.17
2018-10-09T16:48:34.364Z,12.87
2018-10-09T16:51:02.739Z,12.50
2018-10-09T16:53:31.101Z,12.83
2018-10-09T16:55:59.661Z,12.70
2018-10-09T16:58:27.948Z,14.40
2018-10-09T17:00:56.250Z,12.93
2018-10-09T17:03:24.596Z,13.33
2018-10-09T17:05:52.897Z,15.20
2018-10-09T17:08:21.189Z,14.77
2018-10-09T17:10:49.528Z,14.87
2018-10-09T17:13:17.822Z,13.70
2018-10-09T17:15:46.179Z,17.80
2018-10-09T17:18:14.492Z,15.40
2018-10-09T17:20:42.824Z,15.90
2018-10-09T17:23:11.113Z,15.60
2018-10-09T17:25:39.428Z,19.47
2018-10-09T17:28:07.766Z,58.73
2018-10-09T17:30:36.126Z,20.97
2018-10-09T17:33:04.718Z,19.13
2018-10-09T17:35:33.027Z,19.53
2018-10-09T17:38:01.477Z,17.23
2018-10-09T17:40:29.805Z,18.83
2018-10-09T17:42:58.121Z,18.37
2018-10-09T17:45:26.421Z,20.73
2018-10-09T17:47:54.753Z,16.50
2018-10-09T17:50:23.068Z,17.97
2018-10-09T17:52:51.662Z,16.53
2018-10-09T17:55:20.155Z,17.97
2018-10-09T17:57:48.452Z,17.90
2018-10-09T18:00:16.825Z,17.90
2018-10-09T18:02:45.170Z,17.47
2018-10-09T18:05:14.389Z,17.10
2018-10-09T18:08:14.000Z,18.47
2018-10-09T18:10:42.356Z,19.00
2018-10-09T18:13:11.537Z,17.90
2018-10-09T18:15:40.017Z,19.37
2018-10-09T18:18:08.381Z,17.67
2018-10-09T18:20:37.002Z,18.50
2018-10-09T18:23:05.465Z,24.93
2018-10-09T18:25:33.798Z,25.00
2018-10-09T18:28:02.522Z,23.00
2018-10-09T18:30:31.210Z,23.20
2018-10-09T18:32:59.627Z,18.87
2018-10-09T18:35:27.906Z,16.73
2018-10-09T18:37:56.277Z,18.57
2018-10-09T18:40:24.803Z,22.83
2018-10-09T18:42:53.157Z,35.17
2018-10-09T18:45:21.645Z,22.23
2018-10-09T18:47:50.041Z,21.50
2018-10-09T18:50:18.371Z,19.83
2018-10-09T18:52:46.713Z,23.17
2018-10-09T18:55:16.512Z,24.73
2018-10-09T18:57:45.215Z,28.80
2018-10-09T19:00:14.133Z,21.00
2018-10-09T19:02:42.513Z,19.60
2018-10-09T19:05:11.336Z,20.63
2018-10-09T19:07:40.057Z,20.73
2018-10-09T19:10:08.947Z,21.57
2018-10-09T19:12:37.361Z,17.73
2018-10-09T19:15:05.993Z,20.00
2018-10-09T19:17:34.323Z,22.83
2018-10-09T19:20:02.688Z,21.67
2018-10-09T19:22:31.122Z,19.87
2018-10-09T19:24:59.557Z,19.53
2018-10-09T19:27:27.952Z,19.37
2018-10-09T19:29:56.369Z,17.87
2018-10-09T19:32:24.824Z,21.10
2018-10-09T19:34:53.109Z,18.47
2018-10-09T19:37:21.565Z,19.07
2018-10-09T19:39:49.906Z,18.10
2018-10-09T19:42:18.253Z,19.97
2018-10-09T19:44:46.656Z,18.33
2018-10-09T19:47:14.981Z,19.00
2018-10-09T19:49:43.329Z,18.70
2018-10-09T19:52:11.816Z,21.23
2018-10-09T19:54:40.223Z,20.93
2018-10-09T19:57:08.586Z,18.70
2018-10-09T19:59:37.066Z,21.83
2018-10-09T20:02:05.746Z,19.40
2018-10-09T20:04:34.080Z,23.93
2018-10-09T20:07:02.692Z,19.23
2018-10-09T20:09:31.250Z,18.23
2018-10-09T20:11:59.670Z,18.97
2018-10-09T20:14:28.209Z,26.17
2018-10-09T20:16:56.606Z,29.47
2018-10-09T20:19:24.937Z,21.67
2018-10-09T20:21:53.307Z,23.70
2018-10-09T20:24:21.738Z,41.50
2018-10-09T20:26:50.013Z,20.67
2018-10-09T20:29:18.354Z,19.73
2018-10-09T20:31:46.939Z,18.80
2018-10-09T20:34:15.343Z,25.27
2018-10-09T20:36:43.731Z,24.23
2018-10-09T20:39:12.595Z,19.00
2018-10-09T20:41:41.035Z,21.07
2018-10-09T20:44:10.032Z,30.47
2018-10-09T20:46:38.364Z,28.87
2018-10-09T20:49:07.445Z,29.30
2018-10-09T20:51:35.905Z,19.73
2018-10-09T20:54:04.288Z,20.07
2018-10-09T20:56:32.721Z,23.43
2018-10-09T20:59:01.077Z,20.73
2018-10-09T21:01:29.425Z,18.80
2018-10-09T21:03:58.127Z,20.37
2018-10-09T21:06:26.553Z,18.43
2018-10-09T21:08:54.869Z,19.27
2018-10-09T21:11:23.192Z,21.13
2018-10-09T21:13:51.566Z,27.17
2018-10-09T21:16:20.114Z,22.30
2018-10-09T21:18:48.436Z,43.30
2018-10-09T21:21:16.999Z,37.90
2018-10-09T21:23:45.316Z,50.47
2018-10-09T21:26:14.493Z,24.43
2018-10-09T21:28:43.930Z,22.47
2018-10-09T21:31:12.435Z,19.10
2018-10-09T21:33:40.753Z,17.10
2018-10-09T21:36:09.321Z,16.83
2018-10-09T21:38:37.982Z,18.43
2018-10-09T21:41:06.313Z,19.73
2018-10-09T21:43:34.673Z,18.07
2018-10-09T21:46:03.028Z,16.87
2018-10-09T21:48:31.364Z,18.70
2018-10-09T21:50:59.734Z,19.90
2018-10-09T21:53:28.053Z,20.10
2018-10-09T21:55:56.384Z,19.93
2018-10-09T21:58:24.815Z,19.40
2018-10-09T22:00:58.461Z,18.37
2018-10-09T22:03:26.840Z,18.60
2018-10-09T22:05:56.587Z,20.10
2018-10-09T22:08:25.119Z,21.43
2018-10-09T22:10:53.498Z,20.17
2018-10-09T22:13:21.913Z,23.73
2018-10-09T22:15:50.251Z,23.30
2018-10-09T22:18:18.736Z,19.90
2018-10-09T22:20:47.048Z,18.83
2018-10-09T22:23:15.380Z,19.53
2018-10-09T22:25:43.821Z,21.67
2018-10-09T22:28:12.300Z,18.97
2018-10-09T22:30:40.857Z,18.97
2018-10-09T22:33:09.469Z,19.97
2018-10-09T22:35:37.924Z,18.50
2018-10-09T22:38:06.325Z,17.73
2018-10-09T22:40:34.705Z,16.20
2018-10-09T22:43:03.017Z,18.40
2018-10-09T22:45:31.345Z,17.37
2018-10-09T22:48:00.049Z,16.30
2018-10-09T22:50:28.393Z,16.27
2018-10-09T22:52:56.748Z,16.73
2018-10-09T22:55:25.093Z,16.30
2018-10-09T22:57:53.421Z,17.73
2018-10-09T23:00:21.912Z,16.80
2018-10-09T23:02:50.280Z,18.33
2018-10-09T23:05:18.605Z,17.70
2018-10-09T23:07:46.940Z,17.70
2018-10-09T23:10:15.557Z,18.13
2018-10-09T23:12:44.044Z,18.23
2018-10-09T23:15:12.412Z,17.60
2018-10-09T23:17:40.740Z,18.27
2018-10-09T23:20:09.381Z,18.67
2018-10-09T23:22:37.987Z,18.10
2018-10-09T23:25:06.373Z,18.20
2018-10-09T23:27:34.726Z,20.63
2018-10-09T23:30:03.221Z,18.77
2018-10-09T23:32:31.587Z,22.57
2018-10-09T23:34:59.937Z,19.40
2018-10-09T23:37:28.279Z,20.73
2018-10-09T23:39:56.915Z,20.57
2018-10-09T23:42:25.253Z,19.53
2018-10-09T23:44:53.574Z,19.40
2018-10-09T23:47:22.189Z,17.13
2018-10-09T23:49:50.588Z,18.73
2018-10-09T23:52:19.150Z,18.07
2018-10-09T23:54:47.576Z,18.17
2018-10-09T23:57:16.018Z,17.77
2018-10-09T23:59:44.345Z,17.43
